VDPP/PNH METAR and TAF weather

Enter ICAO airport designator
Station Type Date Time Source
VDPP METAR 2021/08/02 01:30 UTC NOAA

VDPP 020130Z 22013KT 9999 SCT015 31/23 Q1007


Station Type Date Time Source
VDPP Decoded METAR 2021/08/02 01:30 UTC NOAA

Phnom-Penh / Pochentong, Cambodia (VDPP) 11-33N 104-51E 10M
Aug 01, 2021 - 09:30 PM EDT / 2021.08.02 0130 UTC
Wind: from the SW (220 degrees) at 15 MPH (13 KT):0
Visibility: greater than 7 mile(s):0
Sky conditions: partly cloudy
Temperature: 87 F (31 C)
Heat index: 93.9 F (34.4 C):1
Dew Point: 73 F (23 C)
Relative Humidity: 62%
Pressure (altimeter): 29.74 in. Hg (1007 hPa)
ob: VDPP 020130Z 22013KT 9999 SCT015 31/23 Q1007
cycle: 1

Station Type Date Time Source
VDPP TAF 2021/08/01 18:00 UTC NOAA

TAF VDPP 011700Z 0118/0212 25009KT 9999 SCT017

Example: see airport list